createdAt,value
2023-04-27T00:00:45.727Z,608.00
2023-04-27T00:01:45.726Z,607.00
2023-04-27T00:02:45.866Z,605.00
2023-04-27T00:03:45.855Z,606.00
2023-04-27T00:04:45.826Z,609.00
2023-04-27T00:05:45.728Z,610.00
2023-04-27T00:06:45.755Z,610.00
2023-04-27T00:07:45.697Z,611.00
2023-04-27T00:08:45.680Z,611.00
2023-04-27T00:09:45.704Z,609.00
2023-04-27T00:10:45.708Z,608.00
2023-04-27T00:11:45.676Z,607.00
2023-04-27T00:12:45.700Z,606.00
2023-04-27T00:13:45.721Z,604.00
2023-04-27T00:14:45.718Z,604.00
2023-04-27T00:15:45.737Z,604.00
2023-04-27T00:16:45.765Z,605.00
2023-04-27T00:17:45.753Z,607.00
2023-04-27T00:18:45.706Z,607.00
2023-04-27T00:19:45.774Z,607.00
2023-04-27T00:20:45.690Z,609.00
2023-04-27T00:21:45.709Z,610.00
2023-04-27T00:22:45.725Z,609.00
2023-04-27T00:23:45.752Z,610.00
2023-04-27T00:24:45.764Z,611.00
2023-04-27T00:25:45.731Z,610.00
2023-04-27T00:26:45.808Z,611.00
2023-04-27T00:27:45.704Z,612.00
2023-04-27T00:28:45.754Z,612.00
2023-04-27T00:29:45.706Z,611.00
2023-04-27T00:30:45.780Z,611.00
2023-04-27T00:31:45.810Z,612.00
2023-04-27T00:32:45.825Z,615.00
2023-04-27T00:33:45.716Z,618.00
2023-04-27T00:34:45.918Z,618.00
2023-04-27T00:35:45.754Z,617.00
2023-04-27T00:36:45.722Z,618.00
2023-04-27T00:37:45.750Z,616.00
2023-04-27T00:38:45.718Z,615.00
2023-04-27T00:39:45.759Z,613.00
2023-04-27T00:40:45.762Z,613.00
2023-04-27T00:41:45.741Z,613.00
2023-04-27T00:42:45.764Z,613.00
2023-04-27T00:43:45.796Z,613.00
2023-04-27T00:44:45.777Z,614.00
2023-04-27T00:45:45.786Z,615.00
2023-04-27T00:46:45.721Z,614.00
2023-04-27T00:47:45.821Z,616.00
2023-04-27T00:48:45.737Z,618.00
2023-04-27T00:49:45.727Z,617.00
2023-04-27T00:50:45.738Z,614.00
2023-04-27T00:51:45.711Z,613.00
2023-04-27T00:52:45.757Z,610.00
2023-04-27T00:53:45.720Z,611.00
2023-04-27T00:54:45.749Z,612.00
2023-04-27T00:55:45.712Z,614.00
2023-04-27T00:56:45.785Z,614.00
2023-04-27T00:57:45.726Z,618.00
2023-04-27T00:58:45.720Z,622.00
2023-04-27T00:59:45.755Z,622.00
2023-04-27T01:00:45.754Z,621.00
2023-04-27T01:01:45.789Z,620.00
2023-04-27T01:02:45.875Z,620.00
2023-04-27T01:03:45.918Z,621.00
2023-04-27T01:04:45.728Z,619.00
2023-04-27T01:05:45.717Z,616.00
2023-04-27T01:06:45.726Z,614.00
2023-04-27T01:07:45.717Z,615.00
2023-04-27T01:08:45.783Z,618.00
2023-04-27T01:09:45.764Z,619.00
2023-04-27T01:10:45.697Z,619.00
2023-04-27T01:11:45.701Z,621.00
2023-04-27T01:12:45.773Z,622.00
2023-04-27T01:13:45.707Z,620.00
2023-04-27T01:14:45.919Z,621.00
2023-04-27T01:15:45.734Z,622.00
2023-04-27T01:16:45.791Z,622.00
2023-04-27T01:17:45.767Z,619.00
2023-04-27T01:18:45.704Z,617.00
2023-04-27T01:19:45.747Z,618.00
2023-04-27T01:20:45.713Z,619.00
2023-04-27T01:21:45.704Z,617.00
2023-04-27T01:22:45.714Z,617.00
2023-04-27T01:23:45.713Z,616.00
2023-04-27T01:24:45.779Z,617.00
2023-04-27T01:25:45.739Z,619.00
2023-04-27T01:26:45.704Z,616.00
2023-04-27T01:27:45.720Z,618.00
2023-04-27T01:28:45.744Z,621.00
2023-04-27T01:29:45.787Z,623.00
2023-04-27T01:30:45.736Z,622.00
2023-04-27T01:31:45.818Z,621.00
2023-04-27T01:32:45.818Z,621.00
2023-04-27T01:33:45.736Z,619.00
2023-04-27T01:34:45.704Z,619.00
2023-04-27T01:35:45.720Z,621.00
2023-04-27T01:36:45.811Z,619.00
2023-04-27T01:37:45.780Z,618.00
2023-04-27T01:38:45.727Z,615.00
2023-04-27T01:39:45.750Z,615.00
2023-04-27T01:40:45.728Z,616.00
2023-04-27T01:41:45.749Z,615.00
2023-04-27T01:42:45.754Z,614.00
2023-04-27T01:43:45.743Z,613.00
2023-04-27T01:44:45.792Z,612.00
2023-04-27T01:45:45.760Z,613.00
2023-04-27T01:46:45.811Z,615.00
2023-04-27T01:47:45.776Z,615.00
2023-04-27T01:48:45.751Z,616.00
2023-04-27T01:49:45.785Z,616.00
2023-04-27T01:50:45.754Z,614.00
2023-04-27T01:51:45.748Z,613.00
2023-04-27T01:52:45.769Z,614.00
2023-04-27T01:53:45.761Z,614.00
2023-04-27T01:54:45.784Z,615.00
2023-04-27T01:55:45.725Z,617.00
2023-04-27T01:56:45.740Z,617.00
2023-04-27T01:57:45.731Z,617.00
2023-04-27T01:58:45.723Z,618.00
2023-04-27T01:59:45.716Z,619.00
2023-04-27T02:00:45.740Z,619.00
2023-04-27T02:01:45.779Z,621.00
2023-04-27T02:02:45.817Z,621.00
2023-04-27T02:03:45.885Z,622.00
2023-04-27T02:04:45.826Z,622.00
2023-04-27T02:05:45.734Z,622.00
2023-04-27T02:06:45.749Z,624.00
2023-04-27T02:07:45.736Z,623.00
2023-04-27T02:08:45.733Z,624.00
2023-04-27T02:09:45.729Z,625.00
2023-04-27T02:10:45.738Z,623.00
2023-04-27T02:11:45.790Z,623.00
2023-04-27T02:12:45.732Z,621.00
2023-04-27T02:13:45.746Z,619.00
2023-04-27T02:14:45.775Z,618.00
2023-04-27T02:15:45.768Z,620.00
2023-04-27T02:16:45.749Z,621.00
2023-04-27T02:17:45.818Z,621.00
2023-04-27T02:18:45.737Z,621.00
2023-04-27T02:19:45.738Z,622.00
2023-04-27T02:20:45.753Z,620.00
2023-04-27T02:21:45.713Z,619.00
2023-04-27T02:22:45.777Z,622.00
2023-04-27T02:23:45.743Z,622.00
2023-04-27T02:24:45.750Z,622.00
2023-04-27T02:25:45.746Z,624.00
2023-04-27T02:27:45.712Z,623.00
2023-04-27T02:28:45.741Z,623.00
2023-04-27T02:29:45.767Z,623.00
2023-04-27T02:30:45.722Z,623.00
2023-04-27T02:31:45.773Z,627.00
2023-04-27T02:32:45.788Z,628.00
2023-04-27T02:33:45.706Z,626.00
2023-04-27T02:34:45.749Z,625.00
2023-04-27T02:35:45.719Z,627.00
2023-04-27T02:36:45.743Z,627.00
2023-04-27T02:37:45.760Z,628.00
2023-04-27T02:38:45.728Z,629.00
2023-04-27T02:39:45.731Z,628.00
2023-04-27T02:40:45.703Z,626.00
2023-04-27T02:41:45.727Z,626.00
2023-04-27T02:42:45.697Z,627.00
2023-04-27T02:43:45.707Z,627.00
2023-04-27T02:44:45.732Z,627.00
2023-04-27T02:45:45.703Z,627.00
2023-04-27T02:46:45.780Z,626.00
2023-04-27T02:47:45.730Z,626.00
2023-04-27T02:48:45.658Z,627.00
2023-04-27T02:49:45.679Z,624.00
2023-04-27T02:50:45.673Z,624.00
2023-04-27T02:51:45.659Z,623.00
2023-04-27T02:52:45.681Z,624.00
2023-04-27T02:53:45.693Z,624.00
2023-04-27T02:54:45.670Z,625.00
2023-04-27T02:55:45.684Z,624.00
2023-04-27T02:56:45.683Z,623.00
2023-04-27T02:57:45.716Z,624.00
2023-04-27T02:58:45.679Z,623.00
2023-04-27T02:59:45.687Z,623.00
2023-04-27T03:00:45.795Z,624.00
2023-04-27T03:01:45.774Z,623.00
2023-04-27T03:02:45.841Z,624.00
2023-04-27T03:03:45.765Z,624.00
2023-04-27T03:04:45.845Z,624.00
2023-04-27T03:05:45.660Z,622.00
2023-04-27T03:06:45.670Z,622.00
2023-04-27T03:07:46.034Z,618.00
2023-04-27T03:08:45.688Z,617.00
2023-04-27T03:09:45.636Z,617.00
2023-04-27T03:10:45.642Z,618.00
2023-04-27T03:11:45.680Z,619.00
2023-04-27T03:12:45.633Z,620.00
2023-04-27T03:13:45.639Z,619.00
2023-04-27T03:14:45.684Z,618.00
2023-04-27T03:15:45.644Z,616.00
2023-04-27T03:16:45.695Z,616.00
2023-04-27T03:17:45.689Z,620.00
2023-04-27T03:18:45.648Z,622.00
2023-04-27T03:19:45.664Z,622.00
2023-04-27T03:20:45.677Z,625.00
2023-04-27T03:21:45.646Z,625.00
2023-04-27T03:22:45.652Z,625.00
2023-04-27T03:23:45.624Z,625.00
2023-04-27T03:24:45.645Z,625.00
2023-04-27T03:25:45.637Z,625.00
2023-04-27T03:26:45.617Z,625.00
2023-04-27T03:27:45.662Z,627.00
2023-04-27T03:28:45.625Z,627.00
2023-04-27T03:29:45.620Z,629.00
2023-04-27T03:30:45.594Z,627.00
2023-04-27T03:31:45.685Z,625.00
2023-04-27T03:32:47.574Z,626.00
2023-04-27T03:33:45.615Z,625.00
2023-04-27T03:34:45.636Z,626.00
2023-04-27T03:35:45.618Z,627.00
2023-04-27T03:36:45.620Z,625.00
2023-04-27T03:37:45.588Z,625.00
2023-04-27T03:38:45.613Z,624.00
2023-04-27T03:39:45.680Z,622.00
2023-04-27T03:40:45.644Z,622.00
2023-04-27T03:41:45.620Z,624.00
2023-04-27T03:42:45.588Z,625.00
2023-04-27T03:43:45.579Z,625.00
2023-04-27T03:44:45.623Z,625.00
2023-04-27T03:45:45.608Z,625.00
2023-04-27T03:46:45.574Z,626.00
2023-04-27T03:47:46.036Z,627.00
2023-04-27T03:48:45.593Z,626.00
2023-04-27T03:49:45.613Z,628.00
2023-04-27T03:50:45.626Z,627.00
2023-04-27T03:51:45.578Z,626.00
2023-04-27T03:52:45.586Z,627.00
2023-04-27T03:53:45.575Z,627.00
2023-04-27T03:54:45.596Z,626.00
2023-04-27T03:55:45.652Z,626.00
2023-04-27T03:56:45.561Z,625.00
2023-04-27T03:57:45.612Z,627.00
2023-04-27T03:58:45.554Z,628.00
2023-04-27T03:59:45.592Z,628.00
2023-04-27T04:00:45.620Z,628.00
2023-04-27T04:01:45.596Z,629.00
2023-04-27T04:02:45.667Z,627.00
2023-04-27T04:03:45.669Z,628.00
2023-04-27T04:04:45.659Z,628.00
2023-04-27T04:05:45.603Z,627.00
2023-04-27T04:06:45.564Z,627.00
2023-04-27T04:07:45.543Z,628.00
2023-04-27T04:08:45.561Z,629.00
2023-04-27T04:09:45.555Z,630.00
2023-04-27T04:10:46.414Z,629.00
2023-04-27T04:11:45.562Z,629.00
2023-04-27T04:12:45.549Z,629.00
2023-04-27T04:13:45.542Z,630.00
2023-04-27T04:14:45.519Z,629.00
2023-04-27T04:15:45.564Z,629.00
2023-04-27T04:16:45.523Z,628.00
2023-04-27T04:17:45.549Z,628.00
2023-04-27T04:18:45.586Z,628.00
2023-04-27T04:19:45.524Z,628.00
2023-04-27T04:20:45.932Z,626.00
2023-04-27T04:21:45.525Z,625.00
2023-04-27T04:22:45.543Z,625.00
2023-04-27T04:23:45.527Z,625.00
2023-04-27T04:24:45.539Z,624.00
2023-04-27T04:25:45.534Z,625.00
2023-04-27T04:26:45.539Z,627.00
2023-04-27T04:27:46.427Z,627.00
2023-04-27T04:28:45.508Z,627.00
2023-04-27T04:29:45.521Z,628.00
2023-04-27T04:30:45.536Z,625.00
2023-04-27T04:31:45.580Z,624.00
2023-04-27T04:32:45.589Z,625.00
2023-04-27T04:33:45.509Z,625.00
2023-04-27T04:34:45.481Z,626.00
2023-04-27T04:35:45.503Z,626.00
2023-04-27T04:36:45.493Z,627.00
2023-04-27T04:37:45.531Z,625.00
2023-04-27T04:38:45.482Z,623.00
2023-04-27T04:39:45.517Z,625.00
2023-04-27T04:40:46.126Z,627.00
2023-04-27T04:41:45.512Z,627.00
2023-04-27T04:42:45.520Z,628.00
2023-04-27T04:43:45.464Z,629.00
2023-04-27T04:44:45.510Z,629.00
2023-04-27T04:45:45.480Z,627.00
2023-04-27T04:46:45.488Z,626.00
2023-04-27T04:47:45.531Z,624.00
2023-04-27T04:48:45.464Z,625.00
2023-04-27T04:49:45.505Z,625.00
2023-04-27T04:50:45.954Z,625.00
2023-04-27T04:51:45.470Z,626.00
2023-04-27T04:52:45.470Z,626.00
2023-04-27T04:53:45.457Z,627.00
2023-04-27T04:54:45.444Z,624.00
2023-04-27T04:55:45.463Z,623.00
2023-04-27T04:56:45.464Z,621.00
2023-04-27T04:57:45.505Z,621.00
2023-04-27T04:58:45.442Z,621.00
2023-04-27T04:59:45.448Z,620.00
2023-04-27T05:00:45.433Z,620.00
2023-04-27T05:01:45.485Z,616.00
2023-04-27T05:02:45.511Z,615.00
2023-04-27T05:03:45.545Z,616.00
2023-04-27T05:04:45.561Z,618.00
2023-04-27T05:05:45.445Z,620.00
2023-04-27T05:06:45.441Z,618.00
2023-04-27T05:07:45.470Z,617.00
2023-04-27T05:08:45.450Z,618.00
2023-04-27T05:09:45.459Z,616.00
2023-04-27T05:10:45.991Z,617.00
2023-04-27T05:11:45.441Z,618.00
2023-04-27T05:12:45.435Z,618.00
2023-04-27T05:13:45.490Z,620.00
2023-04-27T05:14:45.429Z,622.00
2023-04-27T05:15:45.471Z,624.00
2023-04-27T05:16:45.424Z,625.00
2023-04-27T05:17:45.501Z,625.00
2023-04-27T05:18:45.457Z,624.00
2023-04-27T05:19:45.436Z,621.00
2023-04-27T05:20:45.462Z,621.00
2023-04-27T05:21:45.477Z,621.00
2023-04-27T05:22:45.449Z,621.00
2023-04-27T05:23:45.500Z,621.00
2023-04-27T05:24:45.468Z,621.00
2023-04-27T05:25:45.445Z,622.00
2023-04-27T05:26:45.482Z,620.00
2023-04-27T05:27:45.544Z,621.00
2023-04-27T05:28:45.435Z,621.00
2023-04-27T05:29:45.553Z,623.00
2023-04-27T05:30:45.446Z,625.00
2023-04-27T05:31:45.543Z,626.00
2023-04-27T05:32:45.469Z,627.00
2023-04-27T05:33:45.455Z,630.00
2023-04-27T05:34:47.337Z,631.00
2023-04-27T05:35:45.404Z,634.00
2023-04-27T05:36:45.406Z,769.00
2023-04-27T05:37:45.421Z,784.00
2023-04-27T05:38:45.401Z,771.00
2023-04-27T05:39:45.381Z,781.00
2023-04-27T05:40:45.493Z,834.00
2023-04-27T05:41:45.424Z,874.00
2023-04-27T05:42:45.674Z,995.00
2023-04-27T05:43:45.351Z,985.00
2023-04-27T05:44:45.359Z,994.00
2023-04-27T05:45:45.364Z,1034.00
2023-04-27T05:46:45.354Z,1075.00
2023-04-27T05:47:45.355Z,1113.00
2023-04-27T05:48:45.375Z,1163.00
2023-04-27T05:49:45.357Z,1327.00
2023-04-27T05:50:45.340Z,1366.00
2023-04-27T05:51:45.305Z,1951.00
2023-04-27T05:52:47.005Z,1888.00
2023-04-27T05:53:45.321Z,1446.00
2023-04-27T05:54:45.275Z,1054.00
2023-04-27T05:55:45.269Z,794.00
2023-04-27T05:56:45.376Z,693.00
2023-04-27T05:57:47.701Z,593.00
2023-04-27T05:58:45.275Z,595.00
2023-04-27T05:59:45.346Z,597.00
2023-04-27T06:00:45.248Z,584.00
2023-04-27T06:01:45.266Z,578.00
2023-04-27T06:02:45.400Z,576.00
2023-04-27T06:03:45.581Z,588.00
2023-04-27T06:04:45.276Z,701.00
2023-04-27T06:05:45.282Z,676.00
2023-04-27T06:06:45.202Z,685.00
2023-04-27T06:07:45.206Z,625.00
2023-04-27T06:08:45.219Z,625.00
2023-04-27T06:09:45.179Z,629.00
2023-04-27T06:10:45.249Z,643.00
2023-04-27T06:11:45.159Z,638.00
2023-04-27T06:12:46.393Z,637.00
2023-04-27T06:13:45.148Z,692.00
2023-04-27T06:14:45.142Z,696.00
2023-04-27T06:15:45.238Z,691.00
2023-04-27T06:16:45.195Z,704.00
2023-04-27T06:17:45.154Z,694.00
2023-04-27T06:18:45.138Z,677.00
2023-04-27T06:19:45.181Z,736.00
2023-04-27T06:20:45.547Z,727.00
2023-04-27T06:21:45.134Z,720.00
2023-04-27T06:22:45.103Z,736.00
2023-04-27T06:23:45.100Z,754.00
2023-04-27T06:24:45.102Z,778.00
2023-04-27T06:25:45.163Z,820.00
2023-04-27T06:26:45.082Z,853.00
2023-04-27T06:27:45.096Z,871.00
2023-04-27T06:28:45.075Z,884.00
2023-04-27T06:29:45.059Z,949.00
2023-04-27T06:30:45.054Z,962.00
2023-04-27T06:31:45.118Z,986.00
2023-04-27T06:32:45.107Z,1009.00
2023-04-27T06:33:45.054Z,1068.00
2023-04-27T06:34:45.088Z,1170.00
2023-04-27T06:35:47.054Z,1132.00
2023-04-27T06:36:45.246Z,1143.00
2023-04-27T06:37:45.498Z,1172.00
2023-04-27T06:38:45.139Z,1200.00
2023-04-27T06:39:46.743Z,1029.00
2023-04-27T06:40:45.221Z,1115.00
2023-04-27T06:41:45.231Z,1009.00
2023-04-27T06:42:45.536Z,1025.00
2023-04-27T06:43:45.271Z,1044.00
2023-04-27T06:44:45.295Z,1110.00
2023-04-27T06:45:45.300Z,1122.00
2023-04-27T06:46:45.310Z,1135.00
2023-04-27T06:47:45.346Z,1158.00
2023-04-27T06:48:45.311Z,1167.00
2023-04-27T06:49:45.309Z,1179.00
2023-04-27T06:50:45.490Z,1192.00
2023-04-27T06:51:45.349Z,1205.00
2023-04-27T06:52:45.341Z,1247.00
2023-04-27T06:53:45.322Z,1271.00
2023-04-27T06:54:45.380Z,1294.00
2023-04-27T06:55:46.920Z,1305.00
2023-04-27T06:56:45.313Z,1324.00
2023-04-27T06:57:45.306Z,1348.00
2023-04-27T06:58:45.310Z,1389.00
2023-04-27T06:59:45.286Z,1416.00
2023-04-27T07:00:45.303Z,1426.00
2023-04-27T07:01:45.288Z,1438.00
2023-04-27T07:02:45.436Z,1451.00
2023-04-27T07:03:45.390Z,1472.00
2023-04-27T07:04:45.347Z,1497.00
2023-04-27T07:05:45.327Z,1538.00
2023-04-27T07:06:45.245Z,1564.00
2023-04-27T07:07:45.611Z,1582.00
2023-04-27T07:08:45.300Z,1607.00
2023-04-27T07:09:45.230Z,1671.00
2023-04-27T07:10:45.214Z,1687.00
2023-04-27T07:11:45.211Z,1689.00
2023-04-27T07:12:45.213Z,1691.00
2023-04-27T07:13:45.538Z,1697.00
2023-04-27T07:14:45.211Z,1710.00
2023-04-27T07:15:45.249Z,1737.00
2023-04-27T07:16:45.195Z,1787.00
2023-04-27T07:17:45.273Z,1801.00
2023-04-27T07:18:45.482Z,1812.00
2023-04-27T07:19:45.203Z,1837.00
2023-04-27T07:20:45.189Z,1858.00
2023-04-27T07:21:45.240Z,1869.00
2023-04-27T07:22:45.187Z,1876.00
2023-04-27T07:23:45.161Z,1888.00
2023-04-27T07:24:45.135Z,1892.00
2023-04-27T07:25:46.095Z,1891.00
2023-04-27T07:26:45.165Z,1900.00
2023-04-27T07:27:45.137Z,1912.00
2023-04-27T07:28:45.189Z,1960.00
2023-04-27T07:29:45.135Z,1993.00
2023-04-27T07:30:45.186Z,2000.00
2023-04-27T07:31:45.124Z,1931.00
2023-04-27T07:32:46.056Z,1980.00
2023-04-27T07:33:45.145Z,1844.00
2023-04-27T07:34:53.653Z,1894.00
2023-04-27T07:35:46.502Z,1774.00
2023-04-27T07:36:45.129Z,1563.00
2023-04-27T07:37:45.222Z,1746.00
2023-04-27T07:38:45.510Z,1613.00
2023-04-27T07:39:45.094Z,1650.00
2023-04-27T07:40:46.066Z,1646.00
2023-04-27T07:41:45.112Z,1578.00
2023-04-27T07:42:45.067Z,1521.00
2023-04-27T07:43:45.034Z,1487.00
2023-04-27T07:44:45.049Z,1488.00
2023-04-27T07:45:45.181Z,1485.00
2023-04-27T07:46:45.135Z,1481.00
2023-04-27T07:47:45.220Z,1478.00
2023-04-27T07:48:47.025Z,1472.00
2023-04-27T07:49:45.211Z,1467.00
2023-04-27T07:50:45.504Z,1459.00
2023-04-27T07:51:45.185Z,1451.00
2023-04-27T07:52:45.236Z,1446.00
2023-04-27T07:53:47.257Z,1437.00
2023-04-27T07:54:45.289Z,1428.00
2023-04-27T07:55:45.514Z,1421.00
2023-04-27T07:56:45.395Z,1407.00
2023-04-27T07:57:45.296Z,1400.00
2023-04-27T07:58:45.350Z,1394.00
2023-04-27T07:59:45.410Z,1388.00
2023-04-27T08:00:45.382Z,1385.00
2023-04-27T08:01:45.415Z,1380.00
2023-04-27T08:02:46.289Z,1378.00
2023-04-27T08:03:45.755Z,1370.00
2023-04-27T08:04:45.567Z,1365.00
2023-04-27T08:05:45.600Z,1357.00
2023-04-27T08:06:45.904Z,1354.00
2023-04-27T08:07:45.845Z,1346.00
2023-04-27T08:08:45.429Z,1339.00
2023-04-27T08:09:45.498Z,1335.00
2023-04-27T08:10:45.491Z,1328.00
2023-04-27T08:11:45.525Z,1321.00
2023-04-27T08:12:45.529Z,1316.00
2023-04-27T08:13:45.579Z,1310.00
2023-04-27T08:14:45.592Z,1302.00
2023-04-27T08:15:45.649Z,1297.00
2023-04-27T08:16:45.681Z,1294.00
2023-04-27T08:17:45.687Z,1289.00
2023-04-27T08:18:45.715Z,1282.00
2023-04-27T08:19:45.732Z,1276.00
2023-04-27T08:20:45.770Z,1273.00
2023-04-27T08:21:45.930Z,1268.00
2023-04-27T08:22:45.820Z,1282.00
2023-04-27T08:23:45.862Z,1411.00
2023-04-27T08:24:45.850Z,1343.00
2023-04-27T08:25:45.986Z,1394.00
2023-04-27T08:26:45.898Z,1414.00
2023-04-27T08:27:46.014Z,1420.00
2023-04-27T08:28:46.039Z,1415.00
2023-04-27T08:29:45.942Z,1331.00
2023-04-27T08:30:46.005Z,1316.00
2023-04-27T08:31:45.997Z,1312.00
2023-04-27T08:32:46.123Z,1312.00
2023-04-27T08:33:46.012Z,1318.00
2023-04-27T08:34:46.020Z,1319.00
2023-04-27T08:35:46.583Z,1315.00
2023-04-27T08:36:46.065Z,1310.00
2023-04-27T08:37:46.067Z,1304.00
2023-04-27T08:38:46.636Z,1298.00
2023-04-27T08:39:46.105Z,1294.00
2023-04-27T08:40:46.143Z,1291.00
2023-04-27T08:41:46.237Z,1287.00
2023-04-27T08:42:46.148Z,1440.00
2023-04-27T08:43:46.166Z,1382.00
2023-04-27T08:44:46.218Z,1329.00
2023-04-27T08:45:46.235Z,1210.00
2023-04-27T08:46:46.327Z,1291.00
2023-04-27T08:47:46.254Z,1309.00
2023-04-27T08:48:46.306Z,1323.00
2023-04-27T08:49:46.253Z,1325.00
2023-04-27T08:50:46.284Z,1314.00
2023-04-27T08:51:46.289Z,1306.00
2023-04-27T08:52:46.314Z,1296.00
2023-04-27T08:53:46.555Z,1298.00
2023-04-27T08:54:46.357Z,1297.00
2023-04-27T08:55:46.364Z,1296.00
2023-04-27T08:56:46.418Z,1294.00
2023-04-27T08:57:46.429Z,1291.00
2023-04-27T08:58:46.416Z,1287.00
2023-04-27T08:59:46.489Z,1285.00
2023-04-27T09:00:46.531Z,1286.00
2023-04-27T09:01:46.537Z,1287.00
2023-04-27T09:02:46.623Z,1286.00
2023-04-27T09:03:46.841Z,1283.00
2023-04-27T09:04:46.610Z,1283.00
2023-04-27T09:05:56.486Z,1283.00
2023-04-27T09:06:47.563Z,1286.00
2023-04-27T09:07:46.497Z,1285.00
2023-04-27T09:08:46.533Z,1286.00
2023-04-27T09:09:46.525Z,1282.00
2023-04-27T09:10:46.493Z,1280.00
2023-04-27T09:11:46.501Z,1278.00
2023-04-27T09:12:46.525Z,1279.00
2023-04-27T09:13:46.475Z,1278.00
2023-04-27T09:14:46.465Z,1278.00
2023-04-27T09:15:48.574Z,1279.00
2023-04-27T09:16:46.630Z,1278.00
2023-04-27T09:17:46.473Z,1275.00
2023-04-27T09:18:46.451Z,1273.00
2023-04-27T09:19:46.439Z,1272.00
2023-04-27T09:20:46.417Z,1276.00
2023-04-27T09:21:47.743Z,1278.00
2023-04-27T09:22:46.421Z,1280.00
2023-04-27T09:23:46.405Z,1280.00
2023-04-27T09:24:46.402Z,1281.00
2023-04-27T09:25:46.395Z,1281.00
2023-04-27T09:26:46.372Z,1281.00
2023-04-27T09:27:46.384Z,1281.00
2023-04-27T09:28:46.382Z,1283.00
2023-04-27T09:29:46.378Z,1281.00
2023-04-27T09:30:46.377Z,1278.00
2023-04-27T09:31:46.430Z,1273.00
2023-04-27T09:32:46.442Z,1272.00
2023-04-27T09:33:46.398Z,1272.00
2023-04-27T09:34:46.433Z,1272.00
2023-04-27T09:35:46.373Z,1272.00
2023-04-27T09:36:46.462Z,1271.00
2023-04-27T09:37:47.385Z,1271.00
2023-04-27T09:38:46.381Z,1273.00
2023-04-27T09:39:46.374Z,1275.00
2023-04-27T09:40:46.356Z,1276.00
2023-04-27T09:41:46.354Z,1276.00
2023-04-27T09:42:46.358Z,1276.00
2023-04-27T09:43:46.351Z,1274.00
2023-04-27T09:44:46.360Z,1273.00
2023-04-27T09:45:46.378Z,1270.00
2023-04-27T09:46:46.375Z,1271.00
2023-04-27T09:47:46.453Z,1274.00
2023-04-27T09:48:46.442Z,1271.00
2023-04-27T09:49:46.468Z,1272.00
2023-04-27T09:50:46.507Z,1271.00
2023-04-27T09:51:46.503Z,1274.00
2023-04-27T09:52:46.527Z,1272.00
2023-04-27T09:53:46.547Z,1270.00
2023-04-27T09:54:46.594Z,1270.00
2023-04-27T09:55:46.613Z,1271.00
2023-04-27T09:56:46.650Z,1268.00
2023-04-27T09:57:46.698Z,1265.00
2023-04-27T09:58:46.752Z,1262.00
2023-04-27T09:59:46.759Z,1263.00
2023-04-27T10:00:46.872Z,1262.00
2023-04-27T10:01:46.923Z,1263.00
2023-04-27T10:02:53.253Z,1263.00
2023-04-27T10:03:48.026Z,1265.00
2023-04-27T10:04:46.952Z,1268.00
2023-04-27T10:05:46.895Z,1270.00
2023-04-27T10:06:46.894Z,1270.00
2023-04-27T10:07:46.918Z,1268.00
2023-04-27T10:08:46.871Z,1268.00
2023-04-27T10:09:46.878Z,1269.00
2023-04-27T10:10:46.841Z,1270.00
2023-04-27T10:11:46.895Z,1271.00
2023-04-27T10:12:47.006Z,1268.00
2023-04-27T10:13:46.976Z,1269.00
2023-04-27T10:14:47.047Z,1269.00
2023-04-27T10:15:47.092Z,1265.00
2023-04-27T10:16:47.263Z,1264.00
2023-04-27T10:17:47.243Z,1263.00
2023-04-27T10:18:47.254Z,1265.00
2023-04-27T10:19:47.293Z,1266.00
2023-04-27T10:20:47.339Z,1268.00
2023-04-27T10:21:47.428Z,1267.00
2023-04-27T10:22:47.442Z,1265.00
2023-04-27T10:23:47.502Z,1265.00
2023-04-27T10:24:47.556Z,1265.00
2023-04-27T10:25:47.569Z,1263.00
2023-04-27T10:26:47.619Z,1263.00
2023-04-27T10:27:47.669Z,1260.00
2023-04-27T10:28:47.740Z,1259.00
2023-04-27T10:29:48.075Z,1261.00
2023-04-27T10:30:47.846Z,1258.00
2023-04-27T10:31:47.859Z,1258.00
2023-04-27T10:32:47.918Z,1256.00
2023-04-27T10:33:47.960Z,1254.00
2023-04-27T10:34:48.089Z,1256.00
2023-04-27T10:35:48.005Z,1253.00
2023-04-27T10:36:48.080Z,1250.00
2023-04-27T10:37:48.098Z,1249.00
2023-04-27T10:38:48.172Z,1250.00
2023-04-27T10:39:49.853Z,1248.00
2023-04-27T10:40:48.221Z,1248.00
2023-04-27T10:41:48.570Z,1249.00
2023-04-27T10:42:48.286Z,1249.00
2023-04-27T10:43:48.318Z,1250.00
2023-04-27T10:44:48.368Z,1251.00
2023-04-27T10:45:48.442Z,1252.00
2023-04-27T10:46:48.399Z,1250.00
2023-04-27T10:47:48.524Z,1250.00
2023-04-27T10:48:48.484Z,1246.00
2023-04-27T10:49:48.520Z,1244.00
2023-04-27T10:50:48.537Z,1239.00
2023-04-27T10:51:48.595Z,1238.00
2023-04-27T10:52:48.589Z,1237.00
2023-04-27T10:53:48.604Z,1238.00
2023-04-27T10:54:48.654Z,1238.00
2023-04-27T10:55:48.654Z,1238.00
2023-04-27T10:56:48.750Z,1238.00
2023-04-27T10:57:48.723Z,1236.00
2023-04-27T10:58:49.604Z,1240.00
2023-04-27T10:59:48.789Z,1239.00
2023-04-27T11:00:48.814Z,1238.00
2023-04-27T11:01:48.862Z,1238.00
2023-04-27T11:02:48.926Z,1240.00
2023-04-27T11:03:49.015Z,1240.00
2023-04-27T11:04:49.085Z,1239.00
2023-04-27T11:05:49.021Z,1240.00
2023-04-27T11:06:49.022Z,1243.00
2023-04-27T11:07:49.010Z,1243.00
2023-04-27T11:08:49.037Z,1246.00
2023-04-27T11:09:49.070Z,1245.00
2023-04-27T11:10:49.230Z,1244.00
2023-04-27T11:11:49.108Z,1240.00
2023-04-27T11:12:49.178Z,1239.00
2023-04-27T11:13:49.171Z,1240.00
2023-04-27T11:14:49.212Z,1240.00
2023-04-27T11:15:49.270Z,1242.00
2023-04-27T11:16:49.347Z,1243.00
2023-04-27T11:17:49.509Z,1242.00
2023-04-27T11:18:49.339Z,1242.00
2023-04-27T11:19:49.403Z,1245.00
2023-04-27T11:20:49.424Z,1247.00
2023-04-27T11:21:50.088Z,1246.00
2023-04-27T11:22:49.487Z,1244.00
2023-04-27T11:23:50.105Z,1241.00
2023-04-27T11:24:50.090Z,1236.00
2023-04-27T11:25:49.622Z,1234.00
2023-04-27T11:26:50.123Z,1237.00
2023-04-27T11:27:50.594Z,1236.00
2023-04-27T11:28:49.692Z,1238.00
2023-04-27T11:29:50.140Z,1238.00
2023-04-27T11:30:49.788Z,1238.00
2023-04-27T11:31:50.114Z,1240.00
2023-04-27T11:32:49.859Z,1237.00
2023-04-27T11:33:49.858Z,1239.00
2023-04-27T11:34:49.898Z,1236.00
2023-04-27T11:35:49.912Z,1236.00
2023-04-27T11:36:49.962Z,1235.00
2023-04-27T11:37:49.982Z,1232.00
2023-04-27T11:38:50.139Z,1229.00
2023-04-27T11:39:50.062Z,1228.00
2023-04-27T11:40:50.073Z,1230.00
2023-04-27T11:41:50.166Z,1229.00
2023-04-27T11:42:50.117Z,1229.00
2023-04-27T11:43:50.132Z,1230.00
2023-04-27T11:44:50.153Z,1229.00
2023-04-27T11:45:50.209Z,1227.00
2023-04-27T11:46:50.322Z,1226.00
2023-04-27T11:47:50.280Z,1226.00
2023-04-27T11:48:50.269Z,1225.00
2023-04-27T11:49:50.303Z,1226.00
2023-04-27T11:50:50.369Z,1226.00
2023-04-27T11:51:50.362Z,1226.00
2023-04-27T11:52:50.425Z,1228.00
2023-04-27T11:53:50.435Z,1224.00
2023-04-27T11:54:50.519Z,1224.00
2023-04-27T11:55:50.467Z,1223.00
2023-04-27T11:56:50.502Z,1223.00
2023-04-27T11:57:50.537Z,1222.00
2023-04-27T11:58:50.556Z,1220.00
2023-04-27T11:59:50.585Z,1219.00
2023-04-27T12:00:50.662Z,1216.00
2023-04-27T12:01:50.661Z,1214.00
2023-04-27T12:02:50.844Z,1215.00
2023-04-27T12:03:50.985Z,1216.00
2023-04-27T12:04:50.919Z,1218.00
2023-04-27T12:05:50.874Z,1222.00
2023-04-27T12:06:50.808Z,1223.00
2023-04-27T12:07:50.853Z,1226.00
2023-04-27T12:08:50.841Z,1225.00
2023-04-27T12:09:50.904Z,1225.00
2023-04-27T12:10:50.907Z,1224.00
2023-04-27T12:11:50.925Z,1223.00
2023-04-27T12:12:51.039Z,1222.00
2023-04-27T12:13:50.989Z,1221.00
2023-04-27T12:14:51.063Z,1217.00
2023-04-27T12:15:51.082Z,1215.00
2023-04-27T12:16:51.255Z,1215.00
2023-04-27T12:17:51.200Z,1214.00
2023-04-27T12:18:51.198Z,1213.00